createdAt,value
2023-10-26T00:08:27.133Z,9.4
2023-10-26T00:18:29.456Z,9.4
2023-10-26T00:28:31.051Z,9.3
2023-10-26T00:48:35.824Z,9.1
2023-10-26T00:58:37.591Z,9.1
2023-10-26T01:08:39.478Z,9
2023-10-26T01:28:44.143Z,9.1
2023-10-26T01:38:45.805Z,9.2
2023-10-26T01:48:48.255Z,9.1
2023-10-26T01:58:50.878Z,9.1
2023-10-26T02:18:55.455Z,9
2023-10-26T02:28:57.429Z,9
2023-10-26T02:38:59.683Z,9
2023-10-26T02:49:01.709Z,9
2023-10-26T02:59:03.569Z,9
2023-10-26T03:19:08.143Z,9.1
2023-10-26T03:29:09.839Z,9.1
2023-10-26T03:39:11.865Z,9.1
2023-10-26T03:49:14.426Z,9.1
2023-10-26T03:59:16.939Z,9.1
2023-10-26T04:29:23.984Z,9.1
2023-10-26T04:39:26.028Z,9.1
2023-10-26T04:49:28.382Z,9.1
2023-10-26T04:59:30.460Z,9.1
2023-10-26T05:09:32.305Z,9.1
2023-10-26T05:19:34.435Z,9.1
2023-10-26T05:29:36.480Z,9.1
2023-10-26T05:39:38.191Z,9.1
2023-10-26T05:49:40.140Z,9.1
2023-10-26T05:59:42.432Z,9.1
2023-10-26T06:09:44.881Z,9.1
2023-10-26T06:19:55.392Z,9
2023-10-26T06:29:57.643Z,9
2023-10-26T06:40:00.254Z,9.1
2023-10-26T06:50:02.053Z,9.1
2023-10-26T07:00:04.466Z,9.1
2023-10-26T07:10:06.736Z,9
2023-10-26T07:20:09.414Z,9
2023-10-26T07:30:11.407Z,9
2023-10-26T07:40:18.641Z,9
2023-10-26T07:50:16.001Z,9
2023-10-26T08:00:18.290Z,9
2023-10-26T08:10:20.114Z,9
2023-10-26T08:20:22.500Z,9
2023-10-26T08:30:24.796Z,9
2023-10-26T08:40:27.084Z,9
2023-10-26T08:50:29.463Z,9.1
2023-10-26T09:10:33.919Z,9.2
2023-10-26T09:20:36.166Z,9.2
2023-10-26T09:30:38.356Z,9.2
2023-10-26T09:40:40.120Z,9.2
2023-10-26T09:50:41.928Z,9.2
2023-10-26T10:00:43.747Z,9.2
2023-10-26T10:10:46.132Z,9.3
2023-10-26T10:20:48.523Z,9.3
2023-10-26T10:30:50.926Z,9.2
2023-10-26T10:40:53.093Z,9.3
2023-10-26T11:00:56.860Z,9.7
2023-10-26T11:10:59.065Z,10.1
2023-10-26T11:21:01.429Z,10.3
2023-10-26T11:41:06.353Z,10.3
2023-10-26T12:01:10.803Z,10.6
2023-10-26T12:21:15.232Z,10.7
2023-10-26T12:41:19.689Z,11.1
2023-10-26T12:51:21.748Z,10.9
2023-10-26T13:01:24.279Z,10.9
2023-10-26T13:21:29.495Z,10.8
2023-10-26T13:31:31.334Z,10.8
2023-10-26T13:41:33.255Z,11
2023-10-26T14:01:37.637Z,10.7
2023-10-26T14:21:42.481Z,10.6
2023-10-26T14:31:44.978Z,10.7
2023-10-26T14:41:47.330Z,10.7
2023-10-26T14:51:49.546Z,10.8
2023-10-26T15:01:51.629Z,10.9
2023-10-26T15:11:56.814Z,10.9
2023-10-26T15:21:58.023Z,10.8
2023-10-26T15:31:58.073Z,10.8
2023-10-26T15:42:00.351Z,10.7
2023-10-26T15:52:02.764Z,10.3
2023-10-26T16:02:05.044Z,9.9
2023-10-26T16:12:07.580Z,9.5
2023-10-26T16:22:09.823Z,9.1
2023-10-26T16:32:12.311Z,8.9
2023-10-26T16:42:14.246Z,8.8
2023-10-26T16:52:16.330Z,8.7
2023-10-26T17:12:20.713Z,8.3
2023-10-26T17:22:23.007Z,8.4
2023-10-26T17:32:25.000Z,8.4
2023-10-26T17:42:27.294Z,8.4
2023-10-26T17:52:29.029Z,8.4
2023-10-26T18:02:31.206Z,8.4
2023-10-26T18:12:33.434Z,8.4
2023-10-26T18:22:35.754Z,8.6
2023-10-26T18:32:38.335Z,8.8
2023-10-26T18:52:42.754Z,9.1
2023-10-26T19:02:44.723Z,9
2023-10-26T19:12:47.257Z,9
2023-10-26T19:22:49.672Z,9
2023-10-26T19:32:52.310Z,9
2023-10-26T19:52:56.945Z,9
2023-10-26T20:02:59.002Z,9
2023-10-26T20:13:01.435Z,8.9
2023-10-26T20:23:03.112Z,8.9
2023-10-26T20:43:07.456Z,9
2023-10-26T20:53:09.592Z,9
2023-10-26T21:03:11.534Z,9
2023-10-26T21:13:13.940Z,9
2023-10-26T21:33:17.672Z,9
2023-10-26T21:43:19.638Z,9
2023-10-26T21:53:21.455Z,9
2023-10-26T22:03:23.195Z,9
2023-10-26T22:13:25.561Z,9
2023-10-26T22:23:27.413Z,9
2023-10-26T22:33:29.609Z,9
2023-10-26T22:43:31.916Z,9
2023-10-26T22:53:33.967Z,8.9
2023-10-26T23:13:38.577Z,8.9
2023-10-26T23:33:42.730Z,8.9
2023-10-26T23:53:46.679Z,8.9
